sensor_id;sensor_type;location;lat;lon;timestamp;P1;durP1;ratioP1;P2;durP2;ratioP2
13067;SDS011;6600;51.362;6.686;2022-07-26T00:01:17;0.90;;;0.53;;
13067;SDS011;6600;51.362;6.686;2022-07-26T00:03:43;0.63;;;0.60;;
13067;SDS011;6600;51.362;6.686;2022-07-26T00:06:09;1.17;;;0.73;;
13067;SDS011;6600;51.362;6.686;2022-07-26T00:08:34;0.73;;;0.73;;
13067;SDS011;6600;51.362;6.686;2022-07-26T00:11:00;3.47;;;0.80;;
13067;SDS011;6600;51.362;6.686;2022-07-26T00:13:26;0.37;;;0.37;;
13067;SDS011;6600;51.362;6.686;2022-07-26T00:15:51;1.13;;;0.70;;
13067;SDS011;6600;51.362;6.686;2022-07-26T00:18:17;0.93;;;0.70;;
13067;SDS011;6600;51.362;6.686;2022-07-26T00:20:43;0.97;;;0.80;;
13067;SDS011;6600;51.362;6.686;2022-07-26T00:23:09;1.27;;;0.77;;
13067;SDS011;6600;51.362;6.686;2022-07-26T00:25:35;1.00;;;0.70;;
13067;SDS011;6600;51.362;6.686;2022-07-26T00:28:01;0.77;;;0.63;;
13067;SDS011;6600;51.362;6.686;2022-07-26T00:30:27;1.63;;;1.00;;
13067;SDS011;6600;51.362;6.686;2022-07-26T00:32:52;0.87;;;0.80;;
13067;SDS011;6600;51.362;6.686;2022-07-26T00:35:18;0.90;;;0.80;;
13067;SDS011;6600;51.362;6.686;2022-07-26T00:37:44;0.90;;;0.70;;
13067;SDS011;6600;51.362;6.686;2022-07-26T00:40:09;0.80;;;0.80;;
13067;SDS011;6600;51.362;6.686;2022-07-26T00:42:35;0.97;;;0.80;;
13067;SDS011;6600;51.362;6.686;2022-07-26T00:45:02;2.50;;;0.73;;
13067;SDS011;6600;51.362;6.686;2022-07-26T00:47:28;2.33;;;0.80;;
13067;SDS011;6600;51.362;6.686;2022-07-26T00:49:54;0.50;;;0.50;;
13067;SDS011;6600;51.362;6.686;2022-07-26T00:52:19;1.37;;;0.60;;
13067;SDS011;6600;51.362;6.686;2022-07-26T00:54:44;0.87;;;0.67;;
13067;SDS011;6600;51.362;6.686;2022-07-26T00:57:11;0.60;;;0.60;;
13067;SDS011;6600;51.362;6.686;2022-07-26T00:59:37;1.27;;;0.83;;
13067;SDS011;6600;51.362;6.686;2022-07-26T01:02:04;0.70;;;0.70;;
13067;SDS011;6600;51.362;6.686;2022-07-26T01:04:30;0.70;;;0.70;;
13067;SDS011;6600;51.362;6.686;2022-07-26T01:06:56;0.80;;;0.80;;
13067;SDS011;6600;51.362;6.686;2022-07-26T01:09:22;2.47;;;1.00;;
13067;SDS011;6600;51.362;6.686;2022-07-26T01:11:48;0.97;;;0.67;;
13067;SDS011;6600;51.362;6.686;2022-07-26T01:14:13;2.03;;;0.90;;
13067;SDS011;6600;51.362;6.686;2022-07-26T01:16:39;1.33;;;0.87;;
13067;SDS011;6600;51.362;6.686;2022-07-26T01:19:04;0.50;;;0.50;;
13067;SDS011;6600;51.362;6.686;2022-07-26T01:21:30;0.90;;;0.63;;
13067;SDS011;6600;51.362;6.686;2022-07-26T01:23:57;2.10;;;0.80;;
13067;SDS011;6600;51.362;6.686;2022-07-26T01:26:22;0.60;;;0.57;;
13067;SDS011;6600;51.362;6.686;2022-07-26T01:28:48;2.43;;;0.83;;
13067;SDS011;6600;51.362;6.686;2022-07-26T01:31:14;0.87;;;0.50;;
13067;SDS011;6600;51.362;6.686;2022-07-26T01:33:40;0.60;;;0.60;;
13067;SDS011;6600;51.362;6.686;2022-07-26T01:36:06;1.20;;;0.63;;
13067;SDS011;6600;51.362;6.686;2022-07-26T01:38:32;0.67;;;0.50;;
13067;SDS011;6600;51.362;6.686;2022-07-26T01:40:57;0.40;;;0.40;;
13067;SDS011;6600;51.362;6.686;2022-07-26T01:43:23;0.40;;;0.40;;
13067;SDS011;6600;51.362;6.686;2022-07-26T01:45:48;1.27;;;1.00;;
13067;SDS011;6600;51.362;6.686;2022-07-26T01:48:13;0.23;;;0.23;;
13067;SDS011;6600;51.362;6.686;2022-07-26T01:50:39;0.70;;;0.70;;
13067;SDS011;6600;51.362;6.686;2022-07-26T01:53:04;0.63;;;0.60;;
13067;SDS011;6600;51.362;6.686;2022-07-26T01:55:30;0.83;;;0.33;;
13067;SDS011;6600;51.362;6.686;2022-07-26T01:57:55;0.73;;;0.70;;
13067;SDS011;6600;51.362;6.686;2022-07-26T02:00:20;0.57;;;0.57;;
13067;SDS011;6600;51.362;6.686;2022-07-26T02:02:46;0.37;;;0.37;;
13067;SDS011;6600;51.362;6.686;2022-07-26T02:05:11;1.63;;;0.60;;
13067;SDS011;6600;51.362;6.686;2022-07-26T02:07:38;0.60;;;0.60;;
13067;SDS011;6600;51.362;6.686;2022-07-26T02:10:04;2.57;;;0.67;;
13067;SDS011;6600;51.362;6.686;2022-07-26T02:12:32;1.30;;;0.53;;
13067;SDS011;6600;51.362;6.686;2022-07-26T02:14:57;0.57;;;0.50;;
13067;SDS011;6600;51.362;6.686;2022-07-26T02:17:23;1.43;;;0.80;;
13067;SDS011;6600;51.362;6.686;2022-07-26T02:19:48;0.80;;;0.60;;
13067;SDS011;6600;51.362;6.686;2022-07-26T02:22:14;0.87;;;0.87;;
13067;SDS011;6600;51.362;6.686;2022-07-26T02:24:40;3.07;;;1.00;;
13067;SDS011;6600;51.362;6.686;2022-07-26T02:27:05;0.77;;;0.77;;
13067;SDS011;6600;51.362;6.686;2022-07-26T02:29:31;1.37;;;0.70;;
13067;SDS011;6600;51.362;6.686;2022-07-26T02:31:57;0.87;;;0.73;;
13067;SDS011;6600;51.362;6.686;2022-07-26T02:34:22;0.50;;;0.50;;
13067;SDS011;6600;51.362;6.686;2022-07-26T02:36:48;1.10;;;1.00;;
13067;SDS011;6600;51.362;6.686;2022-07-26T02:39:14;2.47;;;0.50;;
13067;SDS011;6600;51.362;6.686;2022-07-26T02:41:40;0.53;;;0.53;;
13067;SDS011;6600;51.362;6.686;2022-07-26T02:44:05;2.63;;;1.00;;
13067;SDS011;6600;51.362;6.686;2022-07-26T02:46:31;1.37;;;0.70;;
13067;SDS011;6600;51.362;6.686;2022-07-26T02:48:57;1.00;;;0.50;;
13067;SDS011;6600;51.362;6.686;2022-07-26T02:51:24;0.83;;;0.80;;
13067;SDS011;6600;51.362;6.686;2022-07-26T02:53:50;2.77;;;0.70;;
13067;SDS011;6600;51.362;6.686;2022-07-26T02:56:16;0.70;;;0.70;;
13067;SDS011;6600;51.362;6.686;2022-07-26T02:58:41;1.50;;;0.90;;
13067;SDS011;6600;51.362;6.686;2022-07-26T03:01:06;0.73;;;0.73;;
13067;SDS011;6600;51.362;6.686;2022-07-26T03:03:32;0.60;;;0.60;;
13067;SDS011;6600;51.362;6.686;2022-07-26T03:05:57;0.80;;;0.80;;
13067;SDS011;6600;51.362;6.686;2022-07-26T03:08:22;0.70;;;0.70;;
13067;SDS011;6600;51.362;6.686;2022-07-26T03:10:48;1.13;;;1.00;;
13067;SDS011;6600;51.362;6.686;2022-07-26T03:13:13;0.80;;;0.80;;
13067;SDS011;6600;51.362;6.686;2022-07-26T03:15:39;0.83;;;0.70;;
13067;SDS011;6600;51.362;6.686;2022-07-26T03:18:04;1.93;;;0.83;;
13067;SDS011;6600;51.362;6.686;2022-07-26T03:20:30;3.27;;;0.83;;
13067;SDS011;6600;51.362;6.686;2022-07-26T03:22:55;0.83;;;0.73;;
13067;SDS011;6600;51.362;6.686;2022-07-26T03:25:20;0.67;;;0.67;;
13067;SDS011;6600;51.362;6.686;2022-07-26T03:27:46;1.00;;;0.50;;
13067;SDS011;6600;51.362;6.686;2022-07-26T03:30:12;1.77;;;1.30;;
13067;SDS011;6600;51.362;6.686;2022-07-26T03:32:38;1.70;;;0.77;;
13067;SDS011;6600;51.362;6.686;2022-07-26T03:35:05;0.80;;;0.80;;
13067;SDS011;6600;51.362;6.686;2022-07-26T03:37:31;0.83;;;0.73;;
13067;SDS011;6600;51.362;6.686;2022-07-26T03:39:56;1.60;;;0.83;;
13067;SDS011;6600;51.362;6.686;2022-07-26T03:42:21;0.83;;;0.60;;
13067;SDS011;6600;51.362;6.686;2022-07-26T03:44:47;0.70;;;0.70;;
13067;SDS011;6600;51.362;6.686;2022-07-26T03:47:12;0.63;;;0.63;;
13067;SDS011;6600;51.362;6.686;2022-07-26T03:49:37;2.40;;;0.93;;
13067;SDS011;6600;51.362;6.686;2022-07-26T03:52:03;1.20;;;0.87;;
13067;SDS011;6600;51.362;6.686;2022-07-26T03:54:28;1.00;;;1.00;;
13067;SDS011;6600;51.362;6.686;2022-07-26T03:56:54;1.80;;;0.70;;
13067;SDS011;6600;51.362;6.686;2022-07-26T03:59:20;0.57;;;0.57;;
13067;SDS011;6600;51.362;6.686;2022-07-26T04:01:46;0.77;;;0.77;;
13067;SDS011;6600;51.362;6.686;2022-07-26T04:04:12;1.27;;;0.70;;
13067;SDS011;6600;51.362;6.686;2022-07-26T04:06:39;0.63;;;0.60;;
13067;SDS011;6600;51.362;6.686;2022-07-26T04:09:05;1.30;;;1.03;;
13067;SDS011;6600;51.362;6.686;2022-07-26T04:11:32;2.27;;;0.97;;
13067;SDS011;6600;51.362;6.686;2022-07-26T04:13:57;1.23;;;0.93;;
13067;SDS011;6600;51.362;6.686;2022-07-26T04:16:24;1.90;;;0.80;;
13067;SDS011;6600;51.362;6.686;2022-07-26T04:18:49;1.23;;;0.67;;
13067;SDS011;6600;51.362;6.686;2022-07-26T04:21:15;0.70;;;0.70;;
13067;SDS011;6600;51.362;6.686;2022-07-26T04:23:40;1.13;;;0.90;;
13067;SDS011;6600;51.362;6.686;2022-07-26T04:26:06;1.83;;;0.90;;
13067;SDS011;6600;51.362;6.686;2022-07-26T04:28:31;0.90;;;0.90;;
13067;SDS011;6600;51.362;6.686;2022-07-26T04:30:57;1.30;;;1.20;;
13067;SDS011;6600;51.362;6.686;2022-07-26T04:33:23;0.60;;;0.60;;
13067;SDS011;6600;51.362;6.686;2022-07-26T04:35:49;2.47;;;1.10;;
13067;SDS011;6600;51.362;6.686;2022-07-26T04:38:15;1.73;;;1.10;;
13067;SDS011;6600;51.362;6.686;2022-07-26T04:40:40;1.03;;;0.93;;
13067;SDS011;6600;51.362;6.686;2022-07-26T04:43:06;2.20;;;1.10;;
13067;SDS011;6600;51.362;6.686;2022-07-26T04:45:31;0.90;;;0.90;;
13067;SDS011;6600;51.362;6.686;2022-07-26T04:47:57;1.20;;;0.90;;
13067;SDS011;6600;51.362;6.686;2022-07-26T04:50:22;1.17;;;1.03;;
13067;SDS011;6600;51.362;6.686;2022-07-26T04:52:49;3.30;;;1.40;;
13067;SDS011;6600;51.362;6.686;2022-07-26T04:55:16;2.53;;;0.97;;
13067;SDS011;6600;51.362;6.686;2022-07-26T04:57:42;1.47;;;1.10;;
13067;SDS011;6600;51.362;6.686;2022-07-26T05:00:09;1.30;;;0.90;;
13067;SDS011;6600;51.362;6.686;2022-07-26T05:02:36;0.63;;;0.63;;
13067;SDS011;6600;51.362;6.686;2022-07-26T05:05:02;0.80;;;0.80;;
13067;SDS011;6600;51.362;6.686;2022-07-26T05:07:38;2.00;;;0.80;;
13067;SDS011;6600;51.362;6.686;2022-07-26T05:10:06;0.70;;;0.70;;
13067;SDS011;6600;51.362;6.686;2022-07-26T05:12:32;3.93;;;1.30;;
13067;SDS011;6600;51.362;6.686;2022-07-26T05:14:58;2.93;;;1.20;;
13067;SDS011;6600;51.362;6.686;2022-07-26T05:17:23;1.73;;;1.00;;
13067;SDS011;6600;51.362;6.686;2022-07-26T05:19:48;1.47;;;0.90;;
13067;SDS011;6600;51.362;6.686;2022-07-26T05:22:14;1.90;;;1.00;;
13067;SDS011;6600;51.362;6.686;2022-07-26T05:24:39;4.37;;;1.00;;
13067;SDS011;6600;51.362;6.686;2022-07-26T05:27:04;1.43;;;1.00;;
13067;SDS011;6600;51.362;6.686;2022-07-26T05:29:30;1.63;;;0.87;;
13067;SDS011;6600;51.362;6.686;2022-07-26T05:31:55;1.83;;;1.07;;
13067;SDS011;6600;51.362;6.686;2022-07-26T05:34:20;1.93;;;0.97;;
13067;SDS011;6600;51.362;6.686;2022-07-26T05:36:47;2.50;;;1.00;;
13067;SDS011;6600;51.362;6.686;2022-07-26T05:39:13;2.73;;;0.93;;
13067;SDS011;6600;51.362;6.686;2022-07-26T05:41:38;3.27;;;1.07;;
13067;SDS011;6600;51.362;6.686;2022-07-26T05:44:03;1.50;;;1.00;;
13067;SDS011;6600;51.362;6.686;2022-07-26T05:46:29;1.10;;;1.00;;
13067;SDS011;6600;51.362;6.686;2022-07-26T05:48:54;1.13;;;1.07;;
13067;SDS011;6600;51.362;6.686;2022-07-26T05:51:20;1.67;;;1.17;;
13067;SDS011;6600;51.362;6.686;2022-07-26T05:53:45;3.73;;;1.17;;
13067;SDS011;6600;51.362;6.686;2022-07-26T05:56:10;0.97;;;0.97;;
13067;SDS011;6600;51.362;6.686;2022-07-26T05:58:35;1.10;;;1.07;;
13067;SDS011;6600;51.362;6.686;2022-07-26T06:01:01;2.00;;;1.10;;
13067;SDS011;6600;51.362;6.686;2022-07-26T06:03:26;1.00;;;0.90;;
13067;SDS011;6600;51.362;6.686;2022-07-26T06:05:55;1.40;;;1.00;;
13067;SDS011;6600;51.362;6.686;2022-07-26T06:08:22;6.87;;;1.53;;
13067;SDS011;6600;51.362;6.686;2022-07-26T06:10:49;2.80;;;1.17;;
13067;SDS011;6600;51.362;6.686;2022-07-26T06:13:15;3.47;;;0.70;;
13067;SDS011;6600;51.362;6.686;2022-07-26T06:15:41;2.20;;;1.50;;
13067;SDS011;6600;51.362;6.686;2022-07-26T06:18:08;1.23;;;1.13;;
13067;SDS011;6600;51.362;6.686;2022-07-26T06:20:37;1.10;;;1.00;;
13067;SDS011;6600;51.362;6.686;2022-07-26T06:23:03;1.60;;;1.00;;
13067;SDS011;6600;51.362;6.686;2022-07-26T06:25:29;2.33;;;1.27;;
13067;SDS011;6600;51.362;6.686;2022-07-26T06:27:55;1.97;;;1.00;;
13067;SDS011;6600;51.362;6.686;2022-07-26T06:30:20;3.80;;;0.90;;
13067;SDS011;6600;51.362;6.686;2022-07-26T06:32:45;2.00;;;1.10;;
13067;SDS011;6600;51.362;6.686;2022-07-26T06:35:11;3.57;;;1.10;;
13067;SDS011;6600;51.362;6.686;2022-07-26T06:37:38;1.23;;;1.13;;
13067;SDS011;6600;51.362;6.686;2022-07-26T06:40:05;1.67;;;1.17;;
13067;SDS011;6600;51.362;6.686;2022-07-26T06:42:31;1.87;;;1.10;;
13067;SDS011;6600;51.362;6.686;2022-07-26T06:44:57;2.20;;;1.10;;
13067;SDS011;6600;51.362;6.686;2022-07-26T06:47:23;1.27;;;1.17;;
13067;SDS011;6600;51.362;6.686;2022-07-26T06:49:49;1.17;;;0.90;;
13067;SDS011;6600;51.362;6.686;2022-07-26T06:52:15;1.27;;;1.00;;
13067;SDS011;6600;51.362;6.686;2022-07-26T06:54:40;1.83;;;1.20;;
13067;SDS011;6600;51.362;6.686;2022-07-26T06:57:05;2.70;;;1.30;;
13067;SDS011;6600;51.362;6.686;2022-07-26T06:59:31;2.83;;;1.43;;
13067;SDS011;6600;51.362;6.686;2022-07-26T07:01:56;1.17;;;0.97;;
13067;SDS011;6600;51.362;6.686;2022-07-26T07:04:21;1.10;;;1.10;;
13067;SDS011;6600;51.362;6.686;2022-07-26T07:06:47;3.23;;;1.50;;
13067;SDS011;6600;51.362;6.686;2022-07-26T07:09:12;0.87;;;0.87;;
13067;SDS011;6600;51.362;6.686;2022-07-26T07:11:38;1.83;;;1.20;;
13067;SDS011;6600;51.362;6.686;2022-07-26T07:14:03;2.47;;;1.20;;
13067;SDS011;6600;51.362;6.686;2022-07-26T07:16:28;4.83;;;1.40;;
13067;SDS011;6600;51.362;6.686;2022-07-26T07:18:54;2.67;;;1.30;;
13067;SDS011;6600;51.362;6.686;2022-07-26T07:21:19;2.20;;;1.13;;
13067;SDS011;6600;51.362;6.686;2022-07-26T07:23:44;1.13;;;1.03;;
13067;SDS011;6600;51.362;6.686;2022-07-26T07:26:10;1.40;;;1.30;;
13067;SDS011;6600;51.362;6.686;2022-07-26T07:28:35;1.90;;;0.97;;
13067;SDS011;6600;51.362;6.686;2022-07-26T07:31:04;1.00;;;1.00;;
13067;SDS011;6600;51.362;6.686;2022-07-26T07:33:30;2.53;;;1.30;;
13067;SDS011;6600;51.362;6.686;2022-07-26T07:35:55;1.53;;;1.03;;
13067;SDS011;6600;51.362;6.686;2022-07-26T07:38:21;1.73;;;1.10;;
13067;SDS011;6600;51.362;6.686;2022-07-26T07:40:46;4.13;;;1.23;;
13067;SDS011;6600;51.362;6.686;2022-07-26T07:43:11;1.37;;;1.23;;
13067;SDS011;6600;51.362;6.686;2022-07-26T07:45:37;2.77;;;1.50;;
13067;SDS011;6600;51.362;6.686;2022-07-26T07:48:02;1.60;;;0.97;;
13067;SDS011;6600;51.362;6.686;2022-07-26T07:50:28;1.67;;;1.33;;
13067;SDS011;6600;51.362;6.686;2022-07-26T07:52:53;1.10;;;1.00;;
13067;SDS011;6600;51.362;6.686;2022-07-26T07:55:19;1.57;;;0.97;;
13067;SDS011;6600;51.362;6.686;2022-07-26T07:57:44;1.70;;;1.20;;
13067;SDS011;6600;51.362;6.686;2022-07-26T08:00:10;2.37;;;1.10;;
13067;SDS011;6600;51.362;6.686;2022-07-26T08:02:37;1.80;;;1.20;;
13067;SDS011;6600;51.362;6.686;2022-07-26T08:05:02;1.90;;;1.20;;
13067;SDS011;6600;51.362;6.686;2022-07-26T08:07:28;2.47;;;1.27;;
13067;SDS011;6600;51.362;6.686;2022-07-26T08:09:54;3.20;;;1.20;;
13067;SDS011;6600;51.362;6.686;2022-07-26T08:12:20;1.70;;;1.40;;
13067;SDS011;6600;51.362;6.686;2022-07-26T08:14:46;1.30;;;1.20;;
13067;SDS011;6600;51.362;6.686;2022-07-26T08:17:11;3.60;;;1.87;;
13067;SDS011;6600;51.362;6.686;2022-07-26T08:19:36;1.77;;;1.33;;
13067;SDS011;6600;51.362;6.686;2022-07-26T08:22:02;3.07;;;1.50;;
13067;SDS011;6600;51.362;6.686;2022-07-26T08:24:28;2.53;;;1.73;;
13067;SDS011;6600;51.362;6.686;2022-07-26T08:26:53;2.47;;;1.40;;
13067;SDS011;6600;51.362;6.686;2022-07-26T08:29:19;3.67;;;1.57;;
13067;SDS011;6600;51.362;6.686;2022-07-26T08:31:44;1.93;;;1.30;;
13067;SDS011;6600;51.362;6.686;2022-07-26T08:34:10;2.23;;;1.40;;
13067;SDS011;6600;51.362;6.686;2022-07-26T08:36:35;1.50;;;1.40;;
13067;SDS011;6600;51.362;6.686;2022-07-26T08:39:00;2.50;;;1.30;;
13067;SDS011;6600;51.362;6.686;2022-07-26T08:41:26;1.53;;;1.43;;
13067;SDS011;6600;51.362;6.686;2022-07-26T08:43:52;1.30;;;1.20;;
13067;SDS011;6600;51.362;6.686;2022-07-26T08:46:18;2.17;;;1.70;;
13067;SDS011;6600;51.362;6.686;2022-07-26T08:48:44;2.30;;;2.17;;
13067;SDS011;6600;51.362;6.686;2022-07-26T08:51:09;2.10;;;2.00;;
13067;SDS011;6600;51.362;6.686;2022-07-26T08:53:35;2.70;;;2.50;;
13067;SDS011;6600;51.362;6.686;2022-07-26T08:56:01;2.37;;;2.17;;
13067;SDS011;6600;51.362;6.686;2022-07-26T08:58:30;2.30;;;2.10;;
13067;SDS011;6600;51.362;6.686;2022-07-26T09:01:07;3.33;;;2.53;;
13067;SDS011;6600;51.362;6.686;2022-07-26T09:03:36;3.23;;;3.00;;
13067;SDS011;6600;51.362;6.686;2022-07-26T09:08:39;2.97;;;2.70;;
13067;SDS011;6600;51.362;6.686;2022-07-26T09:11:25;2.83;;;2.57;;
13067;SDS011;6600;51.362;6.686;2022-07-26T09:13:56;4.83;;;2.80;;
13067;SDS011;6600;51.362;6.686;2022-07-26T09:16:27;3.10;;;2.50;;
13067;SDS011;6600;51.362;6.686;2022-07-26T09:18:53;2.70;;;2.50;;
13067;SDS011;6600;51.362;6.686;2022-07-26T09:21:29;3.23;;;2.53;;
13067;SDS011;6600;51.362;6.686;2022-07-26T09:23:55;2.23;;;2.07;;
13067;SDS011;6600;51.362;6.686;2022-07-26T09:26:21;2.27;;;2.00;;
13067;SDS011;6600;51.362;6.686;2022-07-26T09:29:07;2.57;;;2.13;;
13067;SDS011;6600;51.362;6.686;2022-07-26T09:31:35;2.43;;;2.23;;
13067;SDS011;6600;51.362;6.686;2022-07-26T09:34:02;2.03;;;1.73;;
13067;SDS011;6600;51.362;6.686;2022-07-26T09:36:28;2.17;;;2.00;;
13067;SDS011;6600;51.362;6.686;2022-07-26T09:39:03;2.97;;;1.47;;
13067;SDS011;6600;51.362;6.686;2022-07-26T09:41:30;2.10;;;1.53;;
13067;SDS011;6600;51.362;6.686;2022-07-26T09:44:00;1.73;;;1.63;;
13067;SDS011;6600;51.362;6.686;2022-07-26T09:46:28;3.20;;;1.50;;
13067;SDS011;6600;51.362;6.686;2022-07-26T09:48:54;1.53;;;1.40;;
13067;SDS011;6600;51.362;6.686;2022-07-26T09:51:38;1.80;;;1.50;;
13067;SDS011;6600;51.362;6.686;2022-07-26T09:54:05;1.30;;;1.20;;
13067;SDS011;6600;51.362;6.686;2022-07-26T09:59:26;2.10;;;0.80;;
13067;SDS011;6600;51.362;6.686;2022-07-26T10:01:53;1.67;;;1.17;;
13067;SDS011;6600;51.362;6.686;2022-07-26T10:04:21;2.03;;;1.10;;
13067;SDS011;6600;51.362;6.686;2022-07-26T10:06:47;1.00;;;1.00;;
13067;SDS011;6600;51.362;6.686;2022-07-26T10:09:13;1.27;;;1.20;;
13067;SDS011;6600;51.362;6.686;2022-07-26T10:19:59;0.80;;;0.80;;
13067;SDS011;6600;51.362;6.686;2022-07-26T10:24:52;1.93;;;1.30;;
13067;SDS011;6600;51.362;6.686;2022-07-26T10:27:37;1.13;;;1.13;;
13067;SDS011;6600;51.362;6.686;2022-07-26T10:32:56;1.23;;;1.20;;
13067;SDS011;6600;51.362;6.686;2022-07-26T10:38:08;1.80;;;1.50;;
13067;SDS011;6600;51.362;6.686;2022-07-26T10:40:59;3.17;;;1.90;;
13067;SDS011;6600;51.362;6.686;2022-07-26T10:43:31;0.70;;;0.70;;
13067;SDS011;6600;51.362;6.686;2022-07-26T10:49:00;1.10;;;1.10;;
13067;SDS011;6600;51.362;6.686;2022-07-26T10:51:30;0.70;;;0.70;;
13067;SDS011;6600;51.362;6.686;2022-07-26T10:54:00;0.80;;;0.80;;
13067;SDS011;6600;51.362;6.686;2022-07-26T10:56:28;0.93;;;0.90;;
13067;SDS011;6600;51.362;6.686;2022-07-26T10:58:54;1.73;;;0.90;;
13067;SDS011;6600;51.362;6.686;2022-07-26T11:01:20;0.50;;;0.50;;
13067;SDS011;6600;51.362;6.686;2022-07-26T11:03:45;0.70;;;0.70;;
13067;SDS011;6600;51.362;6.686;2022-07-26T11:06:14;0.40;;;0.40;;
13067;SDS011;6600;51.362;6.686;2022-07-26T11:08:42;0.57;;;0.43;;
13067;SDS011;6600;51.362;6.686;2022-07-26T11:11:09;1.30;;;0.70;;
13067;SDS011;6600;51.362;6.686;2022-07-26T11:13:35;0.77;;;0.30;;
13067;SDS011;6600;51.362;6.686;2022-07-26T11:16:02;0.50;;;0.50;;
13067;SDS011;6600;51.362;6.686;2022-07-26T11:18:33;0.40;;;0.40;;
13067;SDS011;6600;51.362;6.686;2022-07-26T11:21:12;0.67;;;0.67;;
13067;SDS011;6600;51.362;6.686;2022-07-26T11:23:40;1.50;;;0.60;;
13067;SDS011;6600;51.362;6.686;2022-07-26T11:28:44;0.40;;;0.40;;
13067;SDS011;6600;51.362;6.686;2022-07-26T11:31:37;0.33;;;0.33;;
13067;SDS011;6600;51.362;6.686;2022-07-26T11:34:07;0.43;;;0.30;;
13067;SDS011;6600;51.362;6.686;2022-07-26T11:36:42;0.17;;;0.17;;
13067;SDS011;6600;51.362;6.686;2022-07-26T11:39:09;0.37;;;0.37;;
13067;SDS011;6600;51.362;6.686;2022-07-26T11:42:17;0.20;;;0.20;;
13067;SDS011;6600;51.362;6.686;2022-07-26T11:44:44;0.30;;;0.30;;
13067;SDS011;6600;51.362;6.686;2022-07-26T11:47:15;0.40;;;0.40;;
13067;SDS011;6600;51.362;6.686;2022-07-26T11:49:41;0.20;;;0.20;;
13067;SDS011;6600;51.362;6.686;2022-07-26T11:52:06;0.57;;;0.43;;
13067;SDS011;6600;51.362;6.686;2022-07-26T11:54:42;0.73;;;0.30;;
13067;SDS011;6600;51.362;6.686;2022-07-26T11:57:10;0.63;;;0.33;;
13067;SDS011;6600;51.362;6.686;2022-07-26T11:59:37;0.20;;;0.20;;
13067;SDS011;6600;51.362;6.686;2022-07-26T12:02:04;0.40;;;0.40;;
13067;SDS011;6600;51.362;6.686;2022-07-26T12:04:32;0.20;;;0.20;;
13067;SDS011;6600;51.362;6.686;2022-07-26T12:07:00;0.30;;;0.30;;
13067;SDS011;6600;51.362;6.686;2022-07-26T12:12:04;0.20;;;0.20;;
13067;SDS011;6600;51.362;6.686;2022-07-26T12:14:32;0.20;;;0.20;;
13067;SDS011;6600;51.362;6.686;2022-07-26T12:17:12;1.60;;;0.47;;
13067;SDS011;6600;51.362;6.686;2022-07-26T12:19:39;0.20;;;0.20;;
13067;SDS011;6600;51.362;6.686;2022-07-26T12:24:37;0.30;;;0.30;;
13067;SDS011;6600;51.362;6.686;2022-07-26T12:27:04;0.30;;;0.30;;
13067;SDS011;6600;51.362;6.686;2022-07-26T12:29:30;0.20;;;0.20;;
13067;SDS011;6600;51.362;6.686;2022-07-26T12:32:04;0.20;;;0.20;;
13067;SDS011;6600;51.362;6.686;2022-07-26T12:34:31;0.43;;;0.37;;
13067;SDS011;6600;51.362;6.686;2022-07-26T12:39:31;0.30;;;0.30;;
13067;SDS011;6600;51.362;6.686;2022-07-26T12:41:56;0.10;;;0.10;;
13067;SDS011;6600;51.362;6.686;2022-07-26T12:44:22;0.30;;;0.30;;
13067;SDS011;6600;51.362;6.686;2022-07-26T12:46:47;0.10;;;0.10;;
13067;SDS011;6600;51.362;6.686;2022-07-26T12:49:13;0.10;;;0.10;;
13067;SDS011;6600;51.362;6.686;2022-07-26T12:51:38;0.50;;;0.50;;
13067;SDS011;6600;51.362;6.686;2022-07-26T12:54:04;0.23;;;0.23;;
13067;SDS011;6600;51.362;6.686;2022-07-26T12:56:30;0.50;;;0.30;;
13067;SDS011;6600;51.362;6.686;2022-07-26T12:58:56;0.30;;;0.30;;
13067;SDS011;6600;51.362;6.686;2022-07-26T13:01:25;0.20;;;0.20;;
13067;SDS011;6600;51.362;6.686;2022-07-26T13:03:51;0.37;;;0.37;;
13067;SDS011;6600;51.362;6.686;2022-07-26T13:06:18;0.33;;;0.33;;
13067;SDS011;6600;51.362;6.686;2022-07-26T13:08:43;0.37;;;0.37;;
13067;SDS011;6600;51.362;6.686;2022-07-26T13:11:09;0.30;;;0.30;;
13067;SDS011;6600;51.362;6.686;2022-07-26T13:13:34;0.20;;;0.20;;
13067;SDS011;6600;51.362;6.686;2022-07-26T13:15:59;0.53;;;0.53;;
13067;SDS011;6600;51.362;6.686;2022-07-26T13:18:25;0.57;;;0.50;;
13067;SDS011;6600;51.362;6.686;2022-07-26T13:20:50;0.40;;;0.40;;
13067;SDS011;6600;51.362;6.686;2022-07-26T13:23:15;0.53;;;0.40;;
13067;SDS011;6600;51.362;6.686;2022-07-26T13:25:41;0.37;;;0.37;;
13067;SDS011;6600;51.362;6.686;2022-07-26T13:28:07;0.33;;;0.33;;
13067;SDS011;6600;51.362;6.686;2022-07-26T13:30:32;0.97;;;0.50;;
13067;SDS011;6600;51.362;6.686;2022-07-26T13:33:00;0.77;;;0.40;;
13067;SDS011;6600;51.362;6.686;2022-07-26T13:35:25;0.53;;;0.40;;
13067;SDS011;6600;51.362;6.686;2022-07-26T13:37:51;0.40;;;0.30;;
13067;SDS011;6600;51.362;6.686;2022-07-26T13:40:16;0.30;;;0.30;;
13067;SDS011;6600;51.362;6.686;2022-07-26T13:42:41;0.67;;;0.50;;
13067;SDS011;6600;51.362;6.686;2022-07-26T13:45:07;0.47;;;0.47;;
13067;SDS011;6600;51.362;6.686;2022-07-26T13:47:33;0.40;;;0.30;;
13067;SDS011;6600;51.362;6.686;2022-07-26T13:49:58;0.53;;;0.53;;
13067;SDS011;6600;51.362;6.686;2022-07-26T13:52:23;0.30;;;0.30;;
13067;SDS011;6600;51.362;6.686;2022-07-26T13:54:49;0.30;;;0.30;;
13067;SDS011;6600;51.362;6.686;2022-07-26T13:57:14;0.50;;;0.50;;
13067;SDS011;6600;51.362;6.686;2022-07-26T13:59:39;2.50;;;0.60;;
13067;SDS011;6600;51.362;6.686;2022-07-26T14:02:05;0.30;;;0.30;;
13067;SDS011;6600;51.362;6.686;2022-07-26T14:04:31;0.43;;;0.37;;
13067;SDS011;6600;51.362;6.686;2022-07-26T14:06:56;0.70;;;0.53;;
13067;SDS011;6600;51.362;6.686;2022-07-26T14:09:22;0.40;;;0.40;;
13067;SDS011;6600;51.362;6.686;2022-07-26T14:11:48;0.73;;;0.40;;
13067;SDS011;6600;51.362;6.686;2022-07-26T14:14:14;0.20;;;0.20;;
13067;SDS011;6600;51.362;6.686;2022-07-26T14:16:39;0.77;;;0.20;;
13067;SDS011;6600;51.362;6.686;2022-07-26T14:19:05;2.83;;;0.50;;
13067;SDS011;6600;51.362;6.686;2022-07-26T14:21:31;1.40;;;0.50;;
13067;SDS011;6600;51.362;6.686;2022-07-26T14:23:57;0.37;;;0.37;;
13067;SDS011;6600;51.362;6.686;2022-07-26T14:26:23;0.30;;;0.30;;
13067;SDS011;6600;51.362;6.686;2022-07-26T14:28:50;0.97;;;0.70;;
13067;SDS011;6600;51.362;6.686;2022-07-26T14:31:15;0.57;;;0.57;;
13067;SDS011;6600;51.362;6.686;2022-07-26T14:33:41;1.00;;;0.60;;
13067;SDS011;6600;51.362;6.686;2022-07-26T14:36:07;0.67;;;0.40;;
13067;SDS011;6600;51.362;6.686;2022-07-26T14:38:34;0.50;;;0.50;;
13067;SDS011;6600;51.362;6.686;2022-07-26T14:41:00;0.30;;;0.30;;
13067;SDS011;6600;51.362;6.686;2022-07-26T14:43:25;0.10;;;0.10;;
13067;SDS011;6600;51.362;6.686;2022-07-26T14:45:51;0.10;;;0.10;;
13067;SDS011;6600;51.362;6.686;2022-07-26T14:48:16;0.10;;;0.10;;
13067;SDS011;6600;51.362;6.686;2022-07-26T14:50:43;0.53;;;0.20;;
13067;SDS011;6600;51.362;6.686;2022-07-26T14:53:10;0.30;;;0.27;;
13067;SDS011;6600;51.362;6.686;2022-07-26T14:55:37;0.13;;;0.13;;
13067;SDS011;6600;51.362;6.686;2022-07-26T14:58:02;0.20;;;0.20;;
13067;SDS011;6600;51.362;6.686;2022-07-26T15:00:28;0.27;;;0.13;;
13067;SDS011;6600;51.362;6.686;2022-07-26T15:02:53;0.30;;;0.23;;
13067;SDS011;6600;51.362;6.686;2022-07-26T15:05:18;0.50;;;0.17;;
13067;SDS011;6600;51.362;6.686;2022-07-26T15:07:44;0.20;;;0.20;;
13067;SDS011;6600;51.362;6.686;2022-07-26T15:10:11;0.77;;;0.20;;
13067;SDS011;6600;51.362;6.686;2022-07-26T15:12:37;0.20;;;0.20;;
13067;SDS011;6600;51.362;6.686;2022-07-26T15:15:03;0.40;;;0.40;;
13067;SDS011;6600;51.362;6.686;2022-07-26T15:17:30;1.70;;;0.50;;
13067;SDS011;6600;51.362;6.686;2022-07-26T15:19:55;0.30;;;0.30;;
13067;SDS011;6600;51.362;6.686;2022-07-26T15:22:20;0.50;;;0.40;;
13067;SDS011;6600;51.362;6.686;2022-07-26T15:24:46;0.40;;;0.27;;
13067;SDS011;6600;51.362;6.686;2022-07-26T15:27:11;0.30;;;0.30;;
13067;SDS011;6600;51.362;6.686;2022-07-26T15:29:37;0.27;;;0.27;;
13067;SDS011;6600;51.362;6.686;2022-07-26T15:32:03;0.50;;;0.50;;